sensor_id;sensor_type;location;lat;lon;timestamp;P1;durP1;ratioP1;P2;durP2;ratioP2
18340;SDS011;9296;48.084;16.352;2024-03-25T00:00:23;1.48;;;0.60;;
18340;SDS011;9296;48.084;16.352;2024-03-25T00:03:19;0.93;;;0.63;;
18340;SDS011;9296;48.084;16.352;2024-03-25T00:05:52;0.50;;;0.50;;
18340;SDS011;9296;48.084;16.352;2024-03-25T00:08:59;1.30;;;0.68;;
18340;SDS011;9296;48.084;16.352;2024-03-25T00:12:00;1.20;;;0.60;;
18340;SDS011;9296;48.084;16.352;2024-03-25T00:14:30;0.95;;;0.50;;
18340;SDS011;9296;48.084;16.352;2024-03-25T00:17:00;1.55;;;0.55;;
18340;SDS011;9296;48.084;16.352;2024-03-25T00:19:26;1.27;;;0.65;;
18340;SDS011;9296;48.084;16.352;2024-03-25T00:22:00;1.33;;;0.60;;
18340;SDS011;9296;48.084;16.352;2024-03-25T00:24:27;0.80;;;0.63;;
18340;SDS011;9296;48.084;16.352;2024-03-25T00:26:56;0.88;;;0.70;;
18340;SDS011;9296;48.084;16.352;2024-03-25T00:29:27;0.85;;;0.60;;
18340;SDS011;9296;48.084;16.352;2024-03-25T00:35:01;0.90;;;0.63;;
18340;SDS011;9296;48.084;16.352;2024-03-25T00:37:46;1.25;;;0.43;;
18340;SDS011;9296;48.084;16.352;2024-03-25T00:40:29;0.80;;;0.60;;
18340;SDS011;9296;48.084;16.352;2024-03-25T00:45:51;1.02;;;0.80;;
18340;SDS011;9296;48.084;16.352;2024-03-25T00:50:59;1.88;;;0.90;;
18340;SDS011;9296;48.084;16.352;2024-03-25T00:53:32;1.70;;;0.88;;
18340;SDS011;9296;48.084;16.352;2024-03-25T00:56:03;1.30;;;0.90;;
18340;SDS011;9296;48.084;16.352;2024-03-25T01:01:15;1.33;;;0.93;;
18340;SDS011;9296;48.084;16.352;2024-03-25T01:07:31;1.55;;;0.90;;
18340;SDS011;9296;48.084;16.352;2024-03-25T01:10:44;1.20;;;0.80;;
18340;SDS011;9296;48.084;16.352;2024-03-25T01:16:08;1.15;;;0.90;;
18340;SDS011;9296;48.084;16.352;2024-03-25T01:18:49;1.55;;;1.15;;
18340;SDS011;9296;48.084;16.352;2024-03-25T01:21:19;1.35;;;0.90;;
18340;SDS011;9296;48.084;16.352;2024-03-25T01:27:10;1.20;;;1.00;;
18340;SDS011;9296;48.084;16.352;2024-03-25T01:29:40;1.75;;;1.30;;
18340;SDS011;9296;48.084;16.352;2024-03-25T01:32:09;2.92;;;1.02;;
18340;SDS011;9296;48.084;16.352;2024-03-25T01:34:54;1.00;;;0.90;;
18340;SDS011;9296;48.084;16.352;2024-03-25T01:37:25;1.67;;;1.13;;
18340;SDS011;9296;48.084;16.352;2024-03-25T01:39:53;2.28;;;1.20;;
18340;SDS011;9296;48.084;16.352;2024-03-25T01:45:20;2.08;;;1.00;;
18340;SDS011;9296;48.084;16.352;2024-03-25T01:47:49;1.63;;;1.10;;
18340;SDS011;9296;48.084;16.352;2024-03-25T01:50:16;2.92;;;1.38;;
18340;SDS011;9296;48.084;16.352;2024-03-25T01:52:45;1.13;;;0.98;;
18340;SDS011;9296;48.084;16.352;2024-03-25T01:55:14;1.13;;;1.02;;
18340;SDS011;9296;48.084;16.352;2024-03-25T01:57:44;1.40;;;0.98;;
18340;SDS011;9296;48.084;16.352;2024-03-25T02:00:13;0.98;;;0.80;;
18340;SDS011;9296;48.084;16.352;2024-03-25T02:02:44;2.17;;;0.98;;
18340;SDS011;9296;48.084;16.352;2024-03-25T02:05:18;0.88;;;0.70;;
18340;SDS011;9296;48.084;16.352;2024-03-25T02:07:46;1.27;;;0.82;;
18340;SDS011;9296;48.084;16.352;2024-03-25T02:10:23;0.60;;;0.60;;
18340;SDS011;9296;48.084;16.352;2024-03-25T02:12:56;0.88;;;0.80;;
18340;SDS011;9296;48.084;16.352;2024-03-25T02:15:43;0.75;;;0.63;;
18340;SDS011;9296;48.084;16.352;2024-03-25T02:18:30;1.23;;;0.80;;
18340;SDS011;9296;48.084;16.352;2024-03-25T02:21:02;1.02;;;0.70;;
18340;SDS011;9296;48.084;16.352;2024-03-25T02:23:36;1.02;;;0.70;;
18340;SDS011;9296;48.084;16.352;2024-03-25T02:32:22;1.45;;;1.30;;
18340;SDS011;9296;48.084;16.352;2024-03-25T02:34:50;1.65;;;1.20;;
18340;SDS011;9296;48.084;16.352;2024-03-25T02:37:18;2.70;;;1.40;;
18340;SDS011;9296;48.084;16.352;2024-03-25T02:39:48;1.50;;;1.40;;
18340;SDS011;9296;48.084;16.352;2024-03-25T02:42:18;2.38;;;1.60;;
18340;SDS011;9296;48.084;16.352;2024-03-25T02:44:46;2.85;;;1.20;;
18340;SDS011;9296;48.084;16.352;2024-03-25T02:47:18;1.55;;;1.30;;
18340;SDS011;9296;48.084;16.352;2024-03-25T02:49:46;4.22;;;1.45;;
18340;SDS011;9296;48.084;16.352;2024-03-25T02:52:13;1.52;;;1.20;;
18340;SDS011;9296;48.084;16.352;2024-03-25T02:54:41;2.45;;;1.35;;
18340;SDS011;9296;48.084;16.352;2024-03-25T02:57:09;2.58;;;1.35;;
18340;SDS011;9296;48.084;16.352;2024-03-25T02:59:37;2.22;;;1.40;;
18340;SDS011;9296;48.084;16.352;2024-03-25T03:02:06;2.92;;;1.38;;
18340;SDS011;9296;48.084;16.352;2024-03-25T03:04:39;2.15;;;1.52;;
18340;SDS011;9296;48.084;16.352;2024-03-25T03:07:10;4.13;;;1.60;;
18340;SDS011;9296;48.084;16.352;2024-03-25T03:09:49;1.77;;;1.50;;
18340;SDS011;9296;48.084;16.352;2024-03-25T03:12:16;2.97;;;1.63;;
18340;SDS011;9296;48.084;16.352;2024-03-25T03:14:47;1.95;;;1.65;;
18340;SDS011;9296;48.084;16.352;2024-03-25T03:26:27;3.08;;;1.73;;
18340;SDS011;9296;48.084;16.352;2024-03-25T03:29:10;2.70;;;1.70;;
18340;SDS011;9296;48.084;16.352;2024-03-25T03:37:05;2.33;;;1.52;;
18340;SDS011;9296;48.084;16.352;2024-03-25T03:39:32;1.83;;;1.60;;
18340;SDS011;9296;48.084;16.352;2024-03-25T03:54:09;2.55;;;1.70;;
18340;SDS011;9296;48.084;16.352;2024-03-25T03:56:38;2.75;;;1.65;;
18340;SDS011;9296;48.084;16.352;2024-03-25T03:59:11;2.15;;;1.50;;
18340;SDS011;9296;48.084;16.352;2024-03-25T04:05:17;3.05;;;1.70;;
18340;SDS011;9296;48.084;16.352;2024-03-25T04:07:59;2.88;;;1.48;;
18340;SDS011;9296;48.084;16.352;2024-03-25T04:10:49;2.83;;;1.75;;
18340;SDS011;9296;48.084;16.352;2024-03-25T04:13:20;2.45;;;1.63;;
18340;SDS011;9296;48.084;16.352;2024-03-25T04:15:49;2.60;;;1.90;;
18340;SDS011;9296;48.084;16.352;2024-03-25T04:18:33;2.92;;;1.90;;
18340;SDS011;9296;48.084;16.352;2024-03-25T04:21:21;2.85;;;1.75;;
18340;SDS011;9296;48.084;16.352;2024-03-25T05:01:43;2.20;;;1.95;;
18340;SDS011;9296;48.084;16.352;2024-03-25T05:14:56;4.40;;;1.80;;
18340;SDS011;9296;48.084;16.352;2024-03-25T05:17:29;7.18;;;2.30;;
18340;SDS011;9296;48.084;16.352;2024-03-25T05:19:56;4.00;;;2.22;;
18340;SDS011;9296;48.084;16.352;2024-03-25T05:22:25;3.42;;;1.90;;
18340;SDS011;9296;48.084;16.352;2024-03-25T05:24:52;2.80;;;2.10;;
18340;SDS011;9296;48.084;16.352;2024-03-25T05:27:19;4.07;;;2.03;;
18340;SDS011;9296;48.084;16.352;2024-03-25T05:29:54;2.55;;;1.70;;
18340;SDS011;9296;48.084;16.352;2024-03-25T05:32:21;6.57;;;2.28;;
18340;SDS011;9296;48.084;16.352;2024-03-25T05:34:53;4.53;;;2.10;;
18340;SDS011;9296;48.084;16.352;2024-03-25T05:37:20;3.55;;;2.50;;
18340;SDS011;9296;48.084;16.352;2024-03-25T05:39:52;3.45;;;2.22;;
18340;SDS011;9296;48.084;16.352;2024-03-25T05:42:34;4.82;;;2.28;;
18340;SDS011;9296;48.084;16.352;2024-03-25T05:45:09;3.28;;;1.92;;
18340;SDS011;9296;48.084;16.352;2024-03-25T05:47:37;6.43;;;2.28;;
18340;SDS011;9296;48.084;16.352;2024-03-25T05:50:17;2.83;;;1.70;;
18340;SDS011;9296;48.084;16.352;2024-03-25T05:55:44;4.60;;;2.78;;
18340;SDS011;9296;48.084;16.352;2024-03-25T05:58:13;3.42;;;2.13;;
18340;SDS011;9296;48.084;16.352;2024-03-25T06:00:43;3.40;;;1.90;;
18340;SDS011;9296;48.084;16.352;2024-03-25T06:03:22;3.67;;;2.45;;
18340;SDS011;9296;48.084;16.352;2024-03-25T06:11:59;3.90;;;1.90;;
18340;SDS011;9296;48.084;16.352;2024-03-25T06:14:28;2.13;;;1.70;;
18340;SDS011;9296;48.084;16.352;2024-03-25T06:26:00;3.13;;;1.80;;
18340;SDS011;9296;48.084;16.352;2024-03-25T06:28:44;2.30;;;1.90;;
18340;SDS011;9296;48.084;16.352;2024-03-25T06:31:12;2.30;;;1.85;;
18340;SDS011;9296;48.084;16.352;2024-03-25T06:34:21;7.43;;;1.80;;
18340;SDS011;9296;48.084;16.352;2024-03-25T06:36:53;3.15;;;1.98;;
18340;SDS011;9296;48.084;16.352;2024-03-25T06:39:38;2.45;;;1.73;;
18340;SDS011;9296;48.084;16.352;2024-03-25T06:42:32;2.67;;;1.88;;
18340;SDS011;9296;48.084;16.352;2024-03-25T06:47:51;2.45;;;1.80;;
18340;SDS011;9296;48.084;16.352;2024-03-25T06:50:36;4.38;;;1.83;;
18340;SDS011;9296;48.084;16.352;2024-03-25T06:53:07;4.25;;;1.70;;
18340;SDS011;9296;48.084;16.352;2024-03-25T06:58:12;2.20;;;1.60;;
18340;SDS011;9296;48.084;16.352;2024-03-25T07:01:07;2.92;;;1.70;;
18340;SDS011;9296;48.084;16.352;2024-03-25T07:04:15;2.00;;;1.60;;
18340;SDS011;9296;48.084;16.352;2024-03-25T07:06:43;2.00;;;1.73;;
18340;SDS011;9296;48.084;16.352;2024-03-25T07:09:11;2.55;;;1.88;;
18340;SDS011;9296;48.084;16.352;2024-03-25T07:11:38;2.65;;;1.70;;
18340;SDS011;9296;48.084;16.352;2024-03-25T07:14:10;3.13;;;1.73;;
18340;SDS011;9296;48.084;16.352;2024-03-25T07:59:09;3.17;;;1.60;;
18340;SDS011;9296;48.084;16.352;2024-03-25T08:01:35;1.48;;;1.30;;
18340;SDS011;9296;48.084;16.352;2024-03-25T08:04:01;1.85;;;1.40;;
18340;SDS011;9296;48.084;16.352;2024-03-25T08:06:28;1.73;;;1.30;;
18340;SDS011;9296;48.084;16.352;2024-03-25T08:08:54;2.08;;;1.40;;
18340;SDS011;9296;48.084;16.352;2024-03-25T08:11:20;1.40;;;1.30;;
18340;SDS011;9296;48.084;16.352;2024-03-25T08:13:47;2.90;;;1.60;;
18340;SDS011;9296;48.084;16.352;2024-03-25T08:16:15;1.65;;;1.30;;
18340;SDS011;9296;48.084;16.352;2024-03-25T08:18:41;2.55;;;1.20;;
18340;SDS011;9296;48.084;16.352;2024-03-25T08:21:07;2.60;;;1.30;;
18340;SDS011;9296;48.084;16.352;2024-03-25T08:23:34;2.80;;;1.40;;
18340;SDS011;9296;48.084;16.352;2024-03-25T08:26:00;2.15;;;1.42;;
18340;SDS011;9296;48.084;16.352;2024-03-25T08:28:26;2.30;;;1.42;;
18340;SDS011;9296;48.084;16.352;2024-03-25T08:30:53;1.67;;;1.30;;
18340;SDS011;9296;48.084;16.352;2024-03-25T08:33:21;2.60;;;1.40;;
18340;SDS011;9296;48.084;16.352;2024-03-25T08:35:47;2.17;;;1.40;;
18340;SDS011;9296;48.084;16.352;2024-03-25T08:38:13;2.38;;;1.40;;
18340;SDS011;9296;48.084;16.352;2024-03-25T08:40:39;1.60;;;1.20;;
18340;SDS011;9296;48.084;16.352;2024-03-25T08:43:06;2.55;;;1.80;;
18340;SDS011;9296;48.084;16.352;2024-03-25T08:45:32;3.28;;;2.30;;
18340;SDS011;9296;48.084;16.352;2024-03-25T08:47:58;2.35;;;1.40;;
18340;SDS011;9296;48.084;16.352;2024-03-25T08:50:26;2.47;;;1.45;;
18340;SDS011;9296;48.084;16.352;2024-03-25T08:52:52;4.68;;;2.38;;
18340;SDS011;9296;48.084;16.352;2024-03-25T08:55:19;4.38;;;2.50;;
18340;SDS011;9296;48.084;16.352;2024-03-25T08:57:45;2.20;;;1.63;;
18340;SDS011;9296;48.084;16.352;2024-03-25T09:00:12;1.45;;;1.25;;
18340;SDS011;9296;48.084;16.352;2024-03-25T09:02:38;3.25;;;2.10;;
18340;SDS011;9296;48.084;16.352;2024-03-25T09:05:05;2.25;;;1.40;;
18340;SDS011;9296;48.084;16.352;2024-03-25T09:07:34;2.30;;;1.30;;
18340;SDS011;9296;48.084;16.352;2024-03-25T09:10:00;2.17;;;1.05;;
18340;SDS011;9296;48.084;16.352;2024-03-25T09:12:45;1.50;;;1.05;;
18340;SDS011;9296;48.084;16.352;2024-03-25T09:15:11;1.27;;;0.82;;
18340;SDS011;9296;48.084;16.352;2024-03-25T09:17:37;1.45;;;0.93;;
18340;SDS011;9296;48.084;16.352;2024-03-25T09:20:04;1.90;;;1.20;;
18340;SDS011;9296;48.084;16.352;2024-03-25T09:22:31;1.17;;;0.95;;
18340;SDS011;9296;48.084;16.352;2024-03-25T09:24:58;1.25;;;0.90;;
18340;SDS011;9296;48.084;16.352;2024-03-25T09:27:25;1.70;;;1.20;;
18340;SDS011;9296;48.084;16.352;2024-03-25T09:29:51;1.90;;;1.40;;
18340;SDS011;9296;48.084;16.352;2024-03-25T09:32:33;2.33;;;1.40;;
18340;SDS011;9296;48.084;16.352;2024-03-25T09:34:59;1.42;;;1.10;;
18340;SDS011;9296;48.084;16.352;2024-03-25T09:37:26;3.55;;;1.17;;
18340;SDS011;9296;48.084;16.352;2024-03-25T09:39:52;3.05;;;1.40;;
18340;SDS011;9296;48.084;16.352;2024-03-25T09:42:22;1.83;;;1.30;;
18340;SDS011;9296;48.084;16.352;2024-03-25T09:44:51;5.03;;;1.55;;
18340;SDS011;9296;48.084;16.352;2024-03-25T09:47:17;1.75;;;1.13;;
18340;SDS011;9296;48.084;16.352;2024-03-25T09:49:44;1.38;;;1.23;;
18340;SDS011;9296;48.084;16.352;2024-03-25T09:52:11;1.45;;;1.10;;
18340;SDS011;9296;48.084;16.352;2024-03-25T09:54:37;1.70;;;1.20;;
18340;SDS011;9296;48.084;16.352;2024-03-25T09:57:04;1.27;;;1.13;;
18340;SDS011;9296;48.084;16.352;2024-03-25T09:59:32;2.05;;;1.05;;
18340;SDS011;9296;48.084;16.352;2024-03-25T10:01:58;2.17;;;1.30;;
18340;SDS011;9296;48.084;16.352;2024-03-25T10:04:25;2.08;;;1.20;;
18340;SDS011;9296;48.084;16.352;2024-03-25T10:06:51;1.60;;;1.10;;
18340;SDS011;9296;48.084;16.352;2024-03-25T10:09:18;3.45;;;1.13;;
18340;SDS011;9296;48.084;16.352;2024-03-25T10:11:47;2.60;;;1.08;;
18340;SDS011;9296;48.084;16.352;2024-03-25T10:14:14;1.40;;;0.90;;
18340;SDS011;9296;48.084;16.352;2024-03-25T10:16:43;2.10;;;1.02;;
18340;SDS011;9296;48.084;16.352;2024-03-25T10:19:09;0.75;;;0.75;;
18340;SDS011;9296;48.084;16.352;2024-03-25T10:21:35;0.88;;;0.80;;
18340;SDS011;9296;48.084;16.352;2024-03-25T10:24:04;1.45;;;0.90;;
18340;SDS011;9296;48.084;16.352;2024-03-25T10:26:31;2.05;;;1.20;;
18340;SDS011;9296;48.084;16.352;2024-03-25T10:29:01;2.97;;;1.20;;
18340;SDS011;9296;48.084;16.352;2024-03-25T10:31:28;1.10;;;0.90;;
18340;SDS011;9296;48.084;16.352;2024-03-25T10:36:59;3.58;;;1.10;;
18340;SDS011;9296;48.084;16.352;2024-03-25T10:39:27;1.48;;;1.20;;
18340;SDS011;9296;48.084;16.352;2024-03-25T10:41:55;1.55;;;1.25;;
18340;SDS011;9296;48.084;16.352;2024-03-25T10:44:22;1.70;;;1.10;;
18340;SDS011;9296;48.084;16.352;2024-03-25T10:46:49;1.67;;;1.17;;
18340;SDS011;9296;48.084;16.352;2024-03-25T10:49:19;2.08;;;1.10;;
18340;SDS011;9296;48.084;16.352;2024-03-25T10:51:48;1.30;;;1.13;;
18340;SDS011;9296;48.084;16.352;2024-03-25T10:54:16;2.13;;;1.30;;
18340;SDS011;9296;48.084;16.352;2024-03-25T10:56:43;2.38;;;1.30;;
18340;SDS011;9296;48.084;16.352;2024-03-25T10:59:09;1.50;;;1.13;;
18340;SDS011;9296;48.084;16.352;2024-03-25T11:01:37;4.72;;;1.30;;
18340;SDS011;9296;48.084;16.352;2024-03-25T11:04:03;1.75;;;1.35;;
18340;SDS011;9296;48.084;16.352;2024-03-25T11:06:31;2.60;;;1.40;;
18340;SDS011;9296;48.084;16.352;2024-03-25T11:08:57;1.30;;;1.17;;
18340;SDS011;9296;48.084;16.352;2024-03-25T11:11:31;2.28;;;1.30;;
18340;SDS011;9296;48.084;16.352;2024-03-25T11:13:58;1.77;;;0.90;;
18340;SDS011;9296;48.084;16.352;2024-03-25T11:16:31;2.53;;;1.10;;
18340;SDS011;9296;48.084;16.352;2024-03-25T11:19:00;1.70;;;1.10;;
18340;SDS011;9296;48.084;16.352;2024-03-25T11:21:26;1.35;;;0.80;;
18340;SDS011;9296;48.084;16.352;2024-03-25T11:23:53;1.27;;;1.02;;
18340;SDS011;9296;48.084;16.352;2024-03-25T11:26:20;2.33;;;1.10;;
18340;SDS011;9296;48.084;16.352;2024-03-25T11:28:48;2.20;;;1.13;;
18340;SDS011;9296;48.084;16.352;2024-03-25T11:31:15;1.38;;;1.10;;
18340;SDS011;9296;48.084;16.352;2024-03-25T11:33:41;1.65;;;1.10;;
18340;SDS011;9296;48.084;16.352;2024-03-25T11:36:09;2.33;;;1.20;;
18340;SDS011;9296;48.084;16.352;2024-03-25T11:38:36;2.05;;;1.10;;
18340;SDS011;9296;48.084;16.352;2024-03-25T11:41:03;2.15;;;1.30;;
18340;SDS011;9296;48.084;16.352;2024-03-25T11:43:29;1.25;;;0.90;;
18340;SDS011;9296;48.084;16.352;2024-03-25T11:45:57;1.80;;;1.08;;
18340;SDS011;9296;48.084;16.352;2024-03-25T11:51:10;1.33;;;1.02;;
18340;SDS011;9296;48.084;16.352;2024-03-25T11:53:37;1.45;;;1.00;;
18340;SDS011;9296;48.084;16.352;2024-03-25T11:56:04;1.60;;;1.00;;
18340;SDS011;9296;48.084;16.352;2024-03-25T11:58:30;4.22;;;1.20;;
18340;SDS011;9296;48.084;16.352;2024-03-25T12:00:58;1.88;;;1.10;;
18340;SDS011;9296;48.084;16.352;2024-03-25T12:03:25;2.83;;;1.30;;
18340;SDS011;9296;48.084;16.352;2024-03-25T12:05:53;2.65;;;1.20;;
18340;SDS011;9296;48.084;16.352;2024-03-25T12:08:19;1.95;;;1.25;;
18340;SDS011;9296;48.084;16.352;2024-03-25T12:10:45;2.58;;;1.20;;
18340;SDS011;9296;48.084;16.352;2024-03-25T12:13:30;1.67;;;1.10;;
18340;SDS011;9296;48.084;16.352;2024-03-25T12:15:56;1.90;;;1.10;;
18340;SDS011;9296;48.084;16.352;2024-03-25T12:18:24;1.33;;;0.93;;
18340;SDS011;9296;48.084;16.352;2024-03-25T12:20:50;1.17;;;1.05;;
18340;SDS011;9296;48.084;16.352;2024-03-25T12:23:17;1.35;;;1.17;;
18340;SDS011;9296;48.084;16.352;2024-03-25T12:25:47;1.88;;;1.40;;
18340;SDS011;9296;48.084;16.352;2024-03-25T12:28:14;3.92;;;1.65;;
18340;SDS011;9296;48.084;16.352;2024-03-25T12:30:48;3.00;;;1.65;;
18340;SDS011;9296;48.084;16.352;2024-03-25T12:33:15;3.15;;;1.80;;
18340;SDS011;9296;48.084;16.352;2024-03-25T12:35:44;5.10;;;1.85;;
18340;SDS011;9296;48.084;16.352;2024-03-25T12:38:20;2.38;;;1.20;;
18340;SDS011;9296;48.084;16.352;2024-03-25T12:40:47;1.70;;;1.40;;
18340;SDS011;9296;48.084;16.352;2024-03-25T12:43:13;1.80;;;1.35;;
18340;SDS011;9296;48.084;16.352;2024-03-25T12:45:40;2.38;;;1.50;;
18340;SDS011;9296;48.084;16.352;2024-03-25T12:48:07;3.30;;;1.48;;
18340;SDS011;9296;48.084;16.352;2024-03-25T12:50:33;3.22;;;1.40;;
18340;SDS011;9296;48.084;16.352;2024-03-25T12:53:01;4.15;;;1.55;;
18340;SDS011;9296;48.084;16.352;2024-03-25T12:55:28;2.30;;;1.45;;
18340;SDS011;9296;48.084;16.352;2024-03-25T12:57:54;3.75;;;1.23;;
18340;SDS011;9296;48.084;16.352;2024-03-25T13:00:20;2.00;;;1.20;;
18340;SDS011;9296;48.084;16.352;2024-03-25T13:05:38;3.97;;;1.48;;
18340;SDS011;9296;48.084;16.352;2024-03-25T13:08:06;2.22;;;1.20;;
18340;SDS011;9296;48.084;16.352;2024-03-25T13:10:33;1.30;;;1.15;;
18340;SDS011;9296;48.084;16.352;2024-03-25T13:13:00;1.80;;;1.25;;
18340;SDS011;9296;48.084;16.352;2024-03-25T13:15:27;1.70;;;1.35;;
18340;SDS011;9296;48.084;16.352;2024-03-25T13:17:53;2.55;;;1.40;;
18340;SDS011;9296;48.084;16.352;2024-03-25T13:20:20;3.55;;;1.35;;
18340;SDS011;9296;48.084;16.352;2024-03-25T13:22:48;1.73;;;1.20;;
18340;SDS011;9296;48.084;16.352;2024-03-25T13:25:16;2.22;;;1.42;;
18340;SDS011;9296;48.084;16.352;2024-03-25T13:27:43;1.95;;;1.30;;
18340;SDS011;9296;48.084;16.352;2024-03-25T13:30:09;1.98;;;1.25;;
18340;SDS011;9296;48.084;16.352;2024-03-25T13:32:36;4.90;;;1.42;;
18340;SDS011;9296;48.084;16.352;2024-03-25T13:35:02;2.35;;;1.40;;
18340;SDS011;9296;48.084;16.352;2024-03-25T13:37:29;2.60;;;1.25;;
18340;SDS011;9296;48.084;16.352;2024-03-25T13:39:55;3.55;;;1.50;;
18340;SDS011;9296;48.084;16.352;2024-03-25T13:42:23;1.48;;;1.33;;
18340;SDS011;9296;48.084;16.352;2024-03-25T13:44:50;2.35;;;1.30;;
18340;SDS011;9296;48.084;16.352;2024-03-25T13:47:16;1.80;;;1.38;;
18340;SDS011;9296;48.084;16.352;2024-03-25T13:49:43;4.95;;;1.20;;
18340;SDS011;9296;48.084;16.352;2024-03-25T13:52:09;2.70;;;1.52;;
18340;SDS011;9296;48.084;16.352;2024-03-25T13:54:36;1.58;;;1.27;;
18340;SDS011;9296;48.084;16.352;2024-03-25T13:57:02;3.15;;;1.30;;
18340;SDS011;9296;48.084;16.352;2024-03-25T13:59:30;2.00;;;1.40;;
18340;SDS011;9296;48.084;16.352;2024-03-25T14:01:57;1.45;;;1.25;;
18340;SDS011;9296;48.084;16.352;2024-03-25T14:07:27;2.38;;;1.30;;
18340;SDS011;9296;48.084;16.352;2024-03-25T14:09:53;2.78;;;1.50;;
18340;SDS011;9296;48.084;16.352;2024-03-25T14:12:20;1.90;;;1.42;;
18340;SDS011;9296;48.084;16.352;2024-03-25T14:14:47;1.42;;;1.33;;
18340;SDS011;9296;48.084;16.352;2024-03-25T14:17:14;1.63;;;1.45;;
18340;SDS011;9296;48.084;16.352;2024-03-25T14:22:44;1.80;;;1.30;;
18340;SDS011;9296;48.084;16.352;2024-03-25T14:25:11;3.42;;;1.40;;
18340;SDS011;9296;48.084;16.352;2024-03-25T14:27:37;3.45;;;1.40;;
18340;SDS011;9296;48.084;16.352;2024-03-25T14:30:06;2.92;;;1.25;;
18340;SDS011;9296;48.084;16.352;2024-03-25T14:32:32;1.52;;;1.30;;
18340;SDS011;9296;48.084;16.352;2024-03-25T14:34:59;1.80;;;1.30;;
18340;SDS011;9296;48.084;16.352;2024-03-25T14:37:25;1.42;;;1.20;;
18340;SDS011;9296;48.084;16.352;2024-03-25T14:39:51;1.50;;;1.20;;
18340;SDS011;9296;48.084;16.352;2024-03-25T14:42:18;2.28;;;1.00;;
18340;SDS011;9296;48.084;16.352;2024-03-25T14:44:44;1.92;;;1.27;;
18340;SDS011;9296;48.084;16.352;2024-03-25T14:47:12;1.67;;;1.38;;
18340;SDS011;9296;48.084;16.352;2024-03-25T14:49:39;1.85;;;1.50;;
18340;SDS011;9296;48.084;16.352;2024-03-25T14:52:05;2.25;;;1.15;;
18340;SDS011;9296;48.084;16.352;2024-03-25T14:57:45;3.42;;;1.35;;
18340;SDS011;9296;48.084;16.352;2024-03-25T15:00:16;1.20;;;1.10;;
18340;SDS011;9296;48.084;16.352;2024-03-25T15:02:44;3.30;;;1.27;;
18340;SDS011;9296;48.084;16.352;2024-03-25T15:05:10;3.15;;;1.30;;
18340;SDS011;9296;48.084;16.352;2024-03-25T15:07:37;2.35;;;1.13;;
18340;SDS011;9296;48.084;16.352;2024-03-25T15:13:09;2.03;;;1.40;;
18340;SDS011;9296;48.084;16.352;2024-03-25T15:15:38;2.92;;;1.50;;
18340;SDS011;9296;48.084;16.352;2024-03-25T15:21:10;2.13;;;1.65;;
18340;SDS011;9296;48.084;16.352;2024-03-25T15:26:16;2.05;;;1.20;;
18340;SDS011;9296;48.084;16.352;2024-03-25T15:31:44;1.50;;;1.33;;
18340;SDS011;9296;48.084;16.352;2024-03-25T18:00:14;3.38;;;1.80;;
18340;SDS011;9296;48.084;16.352;2024-03-25T18:02:42;2.97;;;1.80;;
18340;SDS011;9296;48.084;16.352;2024-03-25T18:05:10;4.72;;;2.13;;
18340;SDS011;9296;48.084;16.352;2024-03-25T18:07:38;5.78;;;2.90;;
18340;SDS011;9296;48.084;16.352;2024-03-25T18:10:06;10.40;;;2.47;;
18340;SDS011;9296;48.084;16.352;2024-03-25T18:12:34;4.75;;;1.80;;
18340;SDS011;9296;48.084;16.352;2024-03-25T18:18:19;4.85;;;1.92;;
18340;SDS011;9296;48.084;16.352;2024-03-25T18:21:05;3.33;;;1.80;;
18340;SDS011;9296;48.084;16.352;2024-03-25T18:23:39;8.27;;;3.42;;
18340;SDS011;9296;48.084;16.352;2024-03-25T18:26:07;4.40;;;2.42;;
18340;SDS011;9296;48.084;16.352;2024-03-25T18:28:35;4.85;;;2.83;;
18340;SDS011;9296;48.084;16.352;2024-03-25T18:31:02;4.13;;;2.67;;
18340;SDS011;9296;48.084;16.352;2024-03-25T18:33:34;4.68;;;2.50;;
18340;SDS011;9296;48.084;16.352;2024-03-25T18:36:02;5.20;;;2.40;;
18340;SDS011;9296;48.084;16.352;2024-03-25T18:38:30;5.07;;;2.85;;
18340;SDS011;9296;48.084;16.352;2024-03-25T18:40:57;8.90;;;5.18;;
18340;SDS011;9296;48.084;16.352;2024-03-25T18:43:26;18.85;;;11.20;;
18340;SDS011;9296;48.084;16.352;2024-03-25T18:52:00;17.55;;;11.05;;
18340;SDS011;9296;48.084;16.352;2024-03-25T18:54:29;16.05;;;8.20;;
18340;SDS011;9296;48.084;16.352;2024-03-25T18:56:55;17.83;;;10.95;;
18340;SDS011;9296;48.084;16.352;2024-03-25T18:59:22;15.55;;;9.45;;
18340;SDS011;9296;48.084;16.352;2024-03-25T19:01:49;15.32;;;9.68;;
18340;SDS011;9296;48.084;16.352;2024-03-25T19:07:47;10.48;;;7.38;;
18340;SDS011;9296;48.084;16.352;2024-03-25T19:10:17;11.38;;;6.38;;
18340;SDS011;9296;48.084;16.352;2024-03-25T19:12:51;9.13;;;5.68;;
18340;SDS011;9296;48.084;16.352;2024-03-25T19:15:28;10.85;;;6.15;;
18340;SDS011;9296;48.084;16.352;2024-03-25T19:21:14;8.32;;;5.35;;
18340;SDS011;9296;48.084;16.352;2024-03-25T19:26:28;7.07;;;5.20;;
18340;SDS011;9296;48.084;16.352;2024-03-25T19:29:28;7.63;;;4.75;;
18340;SDS011;9296;48.084;16.352;2024-03-25T19:31:55;9.07;;;4.70;;
18340;SDS011;9296;48.084;16.352;2024-03-25T19:34:22;8.43;;;5.57;;
18340;SDS011;9296;48.084;16.352;2024-03-25T19:36:49;10.95;;;5.32;;
18340;SDS011;9296;48.084;16.352;2024-03-25T19:39:16;9.85;;;4.97;;
18340;SDS011;9296;48.084;16.352;2024-03-25T19:47:35;5.72;;;4.03;;
18340;SDS011;9296;48.084;16.352;2024-03-25T19:50:32;6.45;;;4.07;;
18340;SDS011;9296;48.084;16.352;2024-03-25T19:53:19;7.50;;;3.75;;
18340;SDS011;9296;48.084;16.352;2024-03-25T19:58:47;5.47;;;3.63;;
18340;SDS011;9296;48.084;16.352;2024-03-25T20:01:29;7.00;;;3.75;;
18340;SDS011;9296;48.084;16.352;2024-03-25T20:09:55;9.75;;;4.53;;
18340;SDS011;9296;48.084;16.352;2024-03-25T20:12:35;5.97;;;4.28;;
18340;SDS011;9296;48.084;16.352;2024-03-25T20:15:29;9.20;;;4.50;;
18340;SDS011;9296;48.084;16.352;2024-03-25T20:17:59;9.55;;;4.93;;
18340;SDS011;9296;48.084;16.352;2024-03-25T20:20:35;8.45;;;4.70;;
18340;SDS011;9296;48.084;16.352;2024-03-25T20:23:02;6.95;;;4.43;;
18340;SDS011;9296;48.084;16.352;2024-03-25T20:25:39;8.00;;;4.80;;
18340;SDS011;9296;48.084;16.352;2024-03-25T20:28:10;12.57;;;5.00;;
18340;SDS011;9296;48.084;16.352;2024-03-25T20:30:50;11.50;;;5.47;;
18340;SDS011;9296;48.084;16.352;2024-03-25T20:33:20;7.97;;;5.25;;
18340;SDS011;9296;48.084;16.352;2024-03-25T20:36:03;9.05;;;5.28;;
18340;SDS011;9296;48.084;16.352;2024-03-25T21:13:05;8.60;;;5.28;;
18340;SDS011;9296;48.084;16.352;2024-03-25T21:21:18;11.25;;;6.53;;
18340;SDS011;9296;48.084;16.352;2024-03-25T22:04:09;7.95;;;5.13;;
18340;SDS011;9296;48.084;16.352;2024-03-25T22:06:36;8.07;;;5.32;;
18340;SDS011;9296;48.084;16.352;2024-03-25T22:09:14;10.80;;;5.10;;
18340;SDS011;9296;48.084;16.352;2024-03-25T22:12:02;9.73;;;5.07;;
18340;SDS011;9296;48.084;16.352;2024-03-25T22:14:30;7.97;;;4.97;;
18340;SDS011;9296;48.084;16.352;2024-03-25T22:17:02;8.65;;;5.20;;
18340;SDS011;9296;48.084;16.352;2024-03-25T23:06:48;13.07;;;7.28;;
18340;SDS011;9296;48.084;16.352;2024-03-25T23:11:50;15.57;;;8.70;;
18340;SDS011;9296;48.084;16.352;2024-03-25T23:14:27;11.75;;;7.07;;
18340;SDS011;9296;48.084;16.352;2024-03-25T23:16:54;11.90;;;7.03;;
18340;SDS011;9296;48.084;16.352;2024-03-25T23:19:47;10.63;;;6.70;;
18340;SDS011;9296;48.084;16.352;2024-03-25T23:22:45;10.90;;;6.82;;
